sensor_id;sensor_type;location;lat;lon;timestamp;P1;durP1;ratioP1;P2;durP2;ratioP2
7440;SDS011;29616;51.950;8.572;2023-05-21T00:00:12;9.15;;;6.50;;
7440;SDS011;29616;51.950;8.572;2023-05-21T00:02:43;10.85;;;7.30;;
7440;SDS011;29616;51.950;8.572;2023-05-21T00:05:12;8.70;;;6.72;;
7440;SDS011;29616;51.950;8.572;2023-05-21T00:07:44;8.13;;;4.97;;
7440;SDS011;29616;51.950;8.572;2023-05-21T00:10:14;9.65;;;7.90;;
7440;SDS011;29616;51.950;8.572;2023-05-21T00:12:43;9.32;;;5.95;;
7440;SDS011;29616;51.950;8.572;2023-05-21T00:15:14;9.20;;;5.22;;
7440;SDS011;29616;51.950;8.572;2023-05-21T00:17:43;10.07;;;7.20;;
7440;SDS011;29616;51.950;8.572;2023-05-21T00:20:13;10.70;;;5.60;;
7440;SDS011;29616;51.950;8.572;2023-05-21T00:22:44;9.25;;;5.45;;
7440;SDS011;29616;51.950;8.572;2023-05-21T00:25:14;8.60;;;6.15;;
7440;SDS011;29616;51.950;8.572;2023-05-21T00:27:45;10.18;;;8.15;;
7440;SDS011;29616;51.950;8.572;2023-05-21T00:30:16;10.45;;;9.13;;
7440;SDS011;29616;51.950;8.572;2023-05-21T00:32:44;8.13;;;5.15;;
7440;SDS011;29616;51.950;8.572;2023-05-21T00:35:14;12.13;;;7.85;;
7440;SDS011;29616;51.950;8.572;2023-05-21T00:37:44;11.25;;;8.13;;
7440;SDS011;29616;51.950;8.572;2023-05-21T00:40:13;12.00;;;7.57;;
7440;SDS011;29616;51.950;8.572;2023-05-21T00:42:43;8.63;;;6.60;;
7440;SDS011;29616;51.950;8.572;2023-05-21T00:45:15;9.20;;;5.53;;
7440;SDS011;29616;51.950;8.572;2023-05-21T00:47:45;11.05;;;6.85;;
7440;SDS011;29616;51.950;8.572;2023-05-21T00:50:16;10.68;;;6.43;;
7440;SDS011;29616;51.950;8.572;2023-05-21T00:52:46;11.02;;;5.80;;
7440;SDS011;29616;51.950;8.572;2023-05-21T00:57:43;10.40;;;5.90;;
7440;SDS011;29616;51.950;8.572;2023-05-21T01:00:15;10.80;;;7.10;;
7440;SDS011;29616;51.950;8.572;2023-05-21T01:02:45;12.88;;;8.82;;
7440;SDS011;29616;51.950;8.572;2023-05-21T01:05:16;13.90;;;7.75;;
7440;SDS011;29616;51.950;8.572;2023-05-21T01:07:50;13.82;;;9.40;;
7440;SDS011;29616;51.950;8.572;2023-05-21T01:10:19;12.52;;;10.05;;
7440;SDS011;29616;51.950;8.572;2023-05-21T01:12:50;12.65;;;7.70;;
7440;SDS011;29616;51.950;8.572;2023-05-21T01:15:22;10.73;;;6.95;;
7440;SDS011;29616;51.950;8.572;2023-05-21T01:17:53;14.38;;;9.93;;
7440;SDS011;29616;51.950;8.572;2023-05-21T01:20:23;12.48;;;7.47;;
7440;SDS011;29616;51.950;8.572;2023-05-21T01:22:57;13.10;;;8.90;;
7440;SDS011;29616;51.950;8.572;2023-05-21T01:25:26;11.63;;;9.30;;
7440;SDS011;29616;51.950;8.572;2023-05-21T01:27:56;15.10;;;7.30;;
7440;SDS011;29616;51.950;8.572;2023-05-21T01:30:26;12.27;;;8.50;;
7440;SDS011;29616;51.950;8.572;2023-05-21T01:32:55;13.05;;;7.25;;
7440;SDS011;29616;51.950;8.572;2023-05-21T01:35:31;12.60;;;9.13;;
7440;SDS011;29616;51.950;8.572;2023-05-21T01:38:07;9.68;;;7.45;;
7440;SDS011;29616;51.950;8.572;2023-05-21T01:40:46;12.85;;;9.82;;
7440;SDS011;29616;51.950;8.572;2023-05-21T01:43:21;10.27;;;7.95;;
7440;SDS011;29616;51.950;8.572;2023-05-21T01:45:53;12.20;;;8.52;;
7440;SDS011;29616;51.950;8.572;2023-05-21T01:48:24;14.73;;;7.22;;
7440;SDS011;29616;51.950;8.572;2023-05-21T01:50:57;11.75;;;7.15;;
7440;SDS011;29616;51.950;8.572;2023-05-21T01:53:30;9.90;;;7.18;;
7440;SDS011;29616;51.950;8.572;2023-05-21T01:56:01;11.25;;;7.13;;
7440;SDS011;29616;51.950;8.572;2023-05-21T01:58:30;10.65;;;5.78;;
7440;SDS011;29616;51.950;8.572;2023-05-21T02:00:59;12.80;;;6.63;;
7440;SDS011;29616;51.950;8.572;2023-05-21T02:03:30;15.82;;;8.70;;
7440;SDS011;29616;51.950;8.572;2023-05-21T02:05:59;10.00;;;6.70;;
7440;SDS011;29616;51.950;8.572;2023-05-21T02:08:28;10.75;;;5.68;;
7440;SDS011;29616;51.950;8.572;2023-05-21T02:11:00;11.35;;;8.85;;
7440;SDS011;29616;51.950;8.572;2023-05-21T02:13:29;11.98;;;7.93;;
7440;SDS011;29616;51.950;8.572;2023-05-21T02:16:00;10.18;;;6.60;;
7440;SDS011;29616;51.950;8.572;2023-05-21T02:18:30;12.35;;;8.30;;
7440;SDS011;29616;51.950;8.572;2023-05-21T02:20:59;11.60;;;7.95;;
7440;SDS011;29616;51.950;8.572;2023-05-21T02:23:29;13.32;;;6.97;;
7440;SDS011;29616;51.950;8.572;2023-05-21T02:25:57;10.90;;;8.30;;
7440;SDS011;29616;51.950;8.572;2023-05-21T02:28:28;13.32;;;8.00;;
7440;SDS011;29616;51.950;8.572;2023-05-21T02:30:59;11.18;;;8.35;;
7440;SDS011;29616;51.950;8.572;2023-05-21T02:33:28;12.55;;;9.57;;
7440;SDS011;29616;51.950;8.572;2023-05-21T02:35:57;12.48;;;9.60;;
7440;SDS011;29616;51.950;8.572;2023-05-21T02:38:27;15.35;;;7.55;;
7440;SDS011;29616;51.950;8.572;2023-05-21T02:41:00;13.38;;;7.78;;
7440;SDS011;29616;51.950;8.572;2023-05-21T02:43:34;11.85;;;7.47;;
7440;SDS011;29616;51.950;8.572;2023-05-21T02:48:34;13.57;;;9.25;;
7440;SDS011;29616;51.950;8.572;2023-05-21T02:51:06;10.95;;;8.70;;
7440;SDS011;29616;51.950;8.572;2023-05-21T02:53:35;13.23;;;8.60;;
7440;SDS011;29616;51.950;8.572;2023-05-21T02:56:08;12.52;;;9.63;;
7440;SDS011;29616;51.950;8.572;2023-05-21T02:58:39;11.23;;;9.15;;
7440;SDS011;29616;51.950;8.572;2023-05-21T03:01:07;13.35;;;8.98;;
7440;SDS011;29616;51.950;8.572;2023-05-21T03:03:36;11.80;;;7.93;;
7440;SDS011;29616;51.950;8.572;2023-05-21T03:06:06;11.95;;;8.77;;
7440;SDS011;29616;51.950;8.572;2023-05-21T03:08:37;13.55;;;9.65;;
7440;SDS011;29616;51.950;8.572;2023-05-21T03:11:09;12.75;;;8.60;;
7440;SDS011;29616;51.950;8.572;2023-05-21T03:13:38;11.73;;;7.55;;
7440;SDS011;29616;51.950;8.572;2023-05-21T03:16:10;12.50;;;7.20;;
7440;SDS011;29616;51.950;8.572;2023-05-21T03:18:40;13.40;;;6.60;;
7440;SDS011;29616;51.950;8.572;2023-05-21T03:21:12;16.33;;;9.75;;
7440;SDS011;29616;51.950;8.572;2023-05-21T03:23:42;12.82;;;7.55;;
7440;SDS011;29616;51.950;8.572;2023-05-21T03:26:14;12.18;;;9.10;;
7440;SDS011;29616;51.950;8.572;2023-05-21T03:28:45;12.57;;;7.03;;
7440;SDS011;29616;51.950;8.572;2023-05-21T03:31:15;14.90;;;10.27;;
7440;SDS011;29616;51.950;8.572;2023-05-21T03:33:49;14.60;;;7.93;;
7440;SDS011;29616;51.950;8.572;2023-05-21T03:36:26;14.10;;;10.23;;
7440;SDS011;29616;51.950;8.572;2023-05-21T03:38:55;13.55;;;8.25;;
7440;SDS011;29616;51.950;8.572;2023-05-21T03:41:25;13.45;;;9.43;;
7440;SDS011;29616;51.950;8.572;2023-05-21T03:44:02;13.27;;;8.07;;
7440;SDS011;29616;51.950;8.572;2023-05-21T03:46:43;13.15;;;7.55;;
7440;SDS011;29616;51.950;8.572;2023-05-21T03:49:23;12.13;;;9.75;;
7440;SDS011;29616;51.950;8.572;2023-05-21T03:51:55;14.30;;;9.40;;
7440;SDS011;29616;51.950;8.572;2023-05-21T03:54:24;12.55;;;9.05;;
7440;SDS011;29616;51.950;8.572;2023-05-21T03:57:00;12.63;;;7.28;;
7440;SDS011;29616;51.950;8.572;2023-05-21T03:59:28;14.95;;;9.60;;
7440;SDS011;29616;51.950;8.572;2023-05-21T04:01:58;13.98;;;9.90;;
7440;SDS011;29616;51.950;8.572;2023-05-21T04:04:27;12.82;;;9.68;;
7440;SDS011;29616;51.950;8.572;2023-05-21T04:06:56;13.05;;;9.13;;
7440;SDS011;29616;51.950;8.572;2023-05-21T04:09:24;10.20;;;8.02;;
7440;SDS011;29616;51.950;8.572;2023-05-21T04:11:54;15.25;;;10.35;;
7440;SDS011;29616;51.950;8.572;2023-05-21T04:14:24;14.10;;;7.85;;
7440;SDS011;29616;51.950;8.572;2023-05-21T04:16:53;11.35;;;8.85;;
7440;SDS011;29616;51.950;8.572;2023-05-21T04:19:28;12.35;;;9.60;;
7440;SDS011;29616;51.950;8.572;2023-05-21T04:21:57;13.23;;;9.50;;
7440;SDS011;29616;51.950;8.572;2023-05-21T04:24:28;12.57;;;8.18;;
7440;SDS011;29616;51.950;8.572;2023-05-21T04:27:06;14.10;;;9.43;;
7440;SDS011;29616;51.950;8.572;2023-05-21T04:29:38;13.77;;;8.88;;
7440;SDS011;29616;51.950;8.572;2023-05-21T04:32:09;12.75;;;8.32;;
7440;SDS011;29616;51.950;8.572;2023-05-21T04:34:41;12.70;;;9.50;;
7440;SDS011;29616;51.950;8.572;2023-05-21T04:37:10;11.00;;;8.07;;
7440;SDS011;29616;51.950;8.572;2023-05-21T04:39:40;12.00;;;8.52;;
7440;SDS011;29616;51.950;8.572;2023-05-21T04:42:09;11.95;;;6.97;;
7440;SDS011;29616;51.950;8.572;2023-05-21T04:47:10;9.75;;;6.57;;
7440;SDS011;29616;51.950;8.572;2023-05-21T04:49:42;14.07;;;9.55;;
7440;SDS011;29616;51.950;8.572;2023-05-21T04:52:13;14.15;;;8.50;;
7440;SDS011;29616;51.950;8.572;2023-05-21T04:54:42;10.90;;;7.35;;
7440;SDS011;29616;51.950;8.572;2023-05-21T04:57:12;10.20;;;7.20;;
7440;SDS011;29616;51.950;8.572;2023-05-21T04:59:42;11.68;;;8.90;;
7440;SDS011;29616;51.950;8.572;2023-05-21T05:02:11;9.13;;;6.00;;
7440;SDS011;29616;51.950;8.572;2023-05-21T05:04:40;14.13;;;9.32;;
7440;SDS011;29616;51.950;8.572;2023-05-21T05:07:09;13.35;;;8.70;;
7440;SDS011;29616;51.950;8.572;2023-05-21T05:09:40;12.98;;;8.35;;
7440;SDS011;29616;51.950;8.572;2023-05-21T05:12:10;12.95;;;8.93;;
7440;SDS011;29616;51.950;8.572;2023-05-21T05:14:38;9.88;;;7.20;;
7440;SDS011;29616;51.950;8.572;2023-05-21T05:17:10;11.00;;;7.22;;
7440;SDS011;29616;51.950;8.572;2023-05-21T05:19:42;11.32;;;8.13;;
7440;SDS011;29616;51.950;8.572;2023-05-21T05:22:11;11.38;;;8.18;;
7440;SDS011;29616;51.950;8.572;2023-05-21T05:24:40;12.27;;;8.23;;
7440;SDS011;29616;51.950;8.572;2023-05-21T05:27:13;10.77;;;6.70;;
7440;SDS011;29616;51.950;8.572;2023-05-21T05:29:43;10.43;;;6.60;;
7440;SDS011;29616;51.950;8.572;2023-05-21T05:32:13;11.60;;;8.32;;
7440;SDS011;29616;51.950;8.572;2023-05-21T05:34:44;10.80;;;7.80;;
7440;SDS011;29616;51.950;8.572;2023-05-21T05:37:14;13.30;;;7.75;;
7440;SDS011;29616;51.950;8.572;2023-05-21T05:39:48;13.23;;;9.52;;
7440;SDS011;29616;51.950;8.572;2023-05-21T05:42:16;10.85;;;7.90;;
7440;SDS011;29616;51.950;8.572;2023-05-21T05:44:46;12.63;;;8.85;;
7440;SDS011;29616;51.950;8.572;2023-05-21T05:47:17;13.85;;;7.47;;
7440;SDS011;29616;51.950;8.572;2023-05-21T05:49:48;12.35;;;10.07;;
7440;SDS011;29616;51.950;8.572;2023-05-21T05:52:17;12.88;;;8.82;;
7440;SDS011;29616;51.950;8.572;2023-05-21T05:54:48;15.18;;;10.13;;
7440;SDS011;29616;51.950;8.572;2023-05-21T05:57:18;14.10;;;7.72;;
7440;SDS011;29616;51.950;8.572;2023-05-21T05:59:51;12.27;;;9.40;;
7440;SDS011;29616;51.950;8.572;2023-05-21T06:02:22;13.80;;;9.82;;
7440;SDS011;29616;51.950;8.572;2023-05-21T06:04:53;14.60;;;7.45;;
7440;SDS011;29616;51.950;8.572;2023-05-21T06:07:23;17.20;;;10.35;;
7440;SDS011;29616;51.950;8.572;2023-05-21T06:09:53;12.95;;;7.28;;
7440;SDS011;29616;51.950;8.572;2023-05-21T06:12:21;13.27;;;9.45;;
7440;SDS011;29616;51.950;8.572;2023-05-21T06:14:51;11.05;;;8.18;;
7440;SDS011;29616;51.950;8.572;2023-05-21T06:19:51;12.75;;;8.88;;
7440;SDS011;29616;51.950;8.572;2023-05-21T06:22:20;12.80;;;7.47;;
7440;SDS011;29616;51.950;8.572;2023-05-21T06:24:53;13.15;;;9.80;;
7440;SDS011;29616;51.950;8.572;2023-05-21T06:27:27;12.90;;;8.77;;
7440;SDS011;29616;51.950;8.572;2023-05-21T06:29:57;13.38;;;8.90;;
7440;SDS011;29616;51.950;8.572;2023-05-21T06:32:30;11.98;;;9.93;;
7440;SDS011;29616;51.950;8.572;2023-05-21T06:35:00;11.90;;;7.80;;
7440;SDS011;29616;51.950;8.572;2023-05-21T06:37:29;12.52;;;10.13;;
7440;SDS011;29616;51.950;8.572;2023-05-21T06:40:01;12.32;;;8.10;;
7440;SDS011;29616;51.950;8.572;2023-05-21T06:42:30;12.13;;;9.07;;
7440;SDS011;29616;51.950;8.572;2023-05-21T06:45:25;11.20;;;7.10;;
7440;SDS011;29616;51.950;8.572;2023-05-21T06:48:00;11.38;;;9.50;;
7440;SDS011;29616;51.950;8.572;2023-05-21T06:50:31;11.52;;;6.75;;
7440;SDS011;29616;51.950;8.572;2023-05-21T06:53:00;14.00;;;7.13;;
7440;SDS011;29616;51.950;8.572;2023-05-21T06:55:30;15.05;;;9.00;;
7440;SDS011;29616;51.950;8.572;2023-05-21T06:58:20;13.70;;;10.45;;
7440;SDS011;29616;51.950;8.572;2023-05-21T07:00:49;14.27;;;7.85;;
7440;SDS011;29616;51.950;8.572;2023-05-21T07:03:22;13.27;;;9.70;;
7440;SDS011;29616;51.950;8.572;2023-05-21T07:05:52;11.73;;;10.45;;
7440;SDS011;29616;51.950;8.572;2023-05-21T07:08:23;12.05;;;8.63;;
7440;SDS011;29616;51.950;8.572;2023-05-21T07:10:52;10.30;;;6.50;;
7440;SDS011;29616;51.950;8.572;2023-05-21T07:13:24;9.95;;;6.90;;
7440;SDS011;29616;51.950;8.572;2023-05-21T07:15:54;12.73;;;9.52;;
7440;SDS011;29616;51.950;8.572;2023-05-21T07:18:27;12.50;;;10.40;;
7440;SDS011;29616;51.950;8.572;2023-05-21T07:20:57;10.98;;;8.68;;
7440;SDS011;29616;51.950;8.572;2023-05-21T07:23:28;12.75;;;8.25;;
7440;SDS011;29616;51.950;8.572;2023-05-21T07:25:58;11.93;;;7.47;;
7440;SDS011;29616;51.950;8.572;2023-05-21T07:28:28;12.73;;;8.13;;
7440;SDS011;29616;51.950;8.572;2023-05-21T07:30:58;13.00;;;7.18;;
7440;SDS011;29616;51.950;8.572;2023-05-21T07:33:35;11.68;;;7.28;;
7440;SDS011;29616;51.950;8.572;2023-05-21T07:36:04;11.52;;;7.72;;
7440;SDS011;29616;51.950;8.572;2023-05-21T07:38:33;11.05;;;7.25;;
7440;SDS011;29616;51.950;8.572;2023-05-21T07:41:03;12.05;;;10.07;;
7440;SDS011;29616;51.950;8.572;2023-05-21T07:43:32;11.07;;;8.07;;
7440;SDS011;29616;51.950;8.572;2023-05-21T07:46:04;12.48;;;7.60;;
7440;SDS011;29616;51.950;8.572;2023-05-21T07:48:33;14.52;;;11.27;;
7440;SDS011;29616;51.950;8.572;2023-05-21T07:51:05;12.48;;;8.70;;
7440;SDS011;29616;51.950;8.572;2023-05-21T07:53:34;12.00;;;7.00;;
7440;SDS011;29616;51.950;8.572;2023-05-21T07:56:08;11.40;;;7.45;;
7440;SDS011;29616;51.950;8.572;2023-05-21T07:58:38;13.13;;;7.85;;
7440;SDS011;29616;51.950;8.572;2023-05-21T08:01:09;11.80;;;7.78;;
7440;SDS011;29616;51.950;8.572;2023-05-21T08:03:41;10.32;;;7.45;;
7440;SDS011;29616;51.950;8.572;2023-05-21T08:06:13;11.40;;;6.95;;
7440;SDS011;29616;51.950;8.572;2023-05-21T08:08:43;15.40;;;9.00;;
7440;SDS011;29616;51.950;8.572;2023-05-21T08:11:12;11.88;;;7.88;;
7440;SDS011;29616;51.950;8.572;2023-05-21T08:13:42;12.73;;;8.45;;
7440;SDS011;29616;51.950;8.572;2023-05-21T08:16:12;10.48;;;8.32;;
7440;SDS011;29616;51.950;8.572;2023-05-21T08:18:42;9.93;;;5.90;;
7440;SDS011;29616;51.950;8.572;2023-05-21T08:21:13;11.50;;;7.72;;
7440;SDS011;29616;51.950;8.572;2023-05-21T08:23:45;9.75;;;6.88;;
7440;SDS011;29616;51.950;8.572;2023-05-21T08:26:13;13.90;;;10.23;;
7440;SDS011;29616;51.950;8.572;2023-05-21T08:28:44;13.40;;;8.55;;
7440;SDS011;29616;51.950;8.572;2023-05-21T08:31:13;11.45;;;8.00;;
7440;SDS011;29616;51.950;8.572;2023-05-21T08:33:48;11.60;;;8.00;;
7440;SDS011;29616;51.950;8.572;2023-05-21T08:36:28;12.48;;;7.90;;
7440;SDS011;29616;51.950;8.572;2023-05-21T08:39:13;12.07;;;7.15;;
7440;SDS011;29616;51.950;8.572;2023-05-21T08:41:42;11.82;;;7.82;;
7440;SDS011;29616;51.950;8.572;2023-05-21T08:44:15;11.95;;;7.82;;
7440;SDS011;29616;51.950;8.572;2023-05-21T08:46:52;11.82;;;8.38;;
7440;SDS011;29616;51.950;8.572;2023-05-21T08:49:25;11.80;;;7.90;;
7440;SDS011;29616;51.950;8.572;2023-05-21T08:52:01;14.60;;;8.77;;
7440;SDS011;29616;51.950;8.572;2023-05-21T08:54:31;12.73;;;6.97;;
7440;SDS011;29616;51.950;8.572;2023-05-21T08:57:00;11.65;;;8.43;;
7440;SDS011;29616;51.950;8.572;2023-05-21T08:59:30;12.93;;;9.60;;
7440;SDS011;29616;51.950;8.572;2023-05-21T09:02:07;13.07;;;10.50;;
7440;SDS011;29616;51.950;8.572;2023-05-21T09:04:39;13.13;;;7.80;;
7440;SDS011;29616;51.950;8.572;2023-05-21T09:07:11;12.45;;;7.60;;
7440;SDS011;29616;51.950;8.572;2023-05-21T09:10:02;11.75;;;8.60;;
7440;SDS011;29616;51.950;8.572;2023-05-21T09:12:37;12.85;;;7.65;;
7440;SDS011;29616;51.950;8.572;2023-05-21T09:15:06;12.80;;;8.32;;
7440;SDS011;29616;51.950;8.572;2023-05-21T09:17:37;13.70;;;8.82;;
7440;SDS011;29616;51.950;8.572;2023-05-21T09:20:28;10.68;;;7.38;;
7440;SDS011;29616;51.950;8.572;2023-05-21T09:23:03;12.80;;;8.63;;
7440;SDS011;29616;51.950;8.572;2023-05-21T09:25:38;14.32;;;11.63;;
7440;SDS011;29616;51.950;8.572;2023-05-21T09:28:11;11.50;;;8.25;;
7440;SDS011;29616;51.950;8.572;2023-05-21T09:30:44;10.35;;;7.65;;
7440;SDS011;29616;51.950;8.572;2023-05-21T09:33:23;10.57;;;7.13;;
7440;SDS011;29616;51.950;8.572;2023-05-21T09:35:53;11.20;;;8.98;;
7440;SDS011;29616;51.950;8.572;2023-05-21T09:38:26;11.93;;;8.85;;
7440;SDS011;29616;51.950;8.572;2023-05-21T09:40:55;12.25;;;6.68;;
7440;SDS011;29616;51.950;8.572;2023-05-21T09:43:27;12.63;;;7.32;;
7440;SDS011;29616;51.950;8.572;2023-05-21T09:45:59;11.68;;;7.70;;
7440;SDS011;29616;51.950;8.572;2023-05-21T09:48:32;9.98;;;7.72;;
7440;SDS011;29616;51.950;8.572;2023-05-21T09:51:09;11.52;;;8.13;;
7440;SDS011;29616;51.950;8.572;2023-05-21T09:53:44;12.05;;;8.73;;
7440;SDS011;29616;51.950;8.572;2023-05-21T09:56:19;12.57;;;9.60;;
7440;SDS011;29616;51.950;8.572;2023-05-21T09:58:50;12.32;;;8.15;;
7440;SDS011;29616;51.950;8.572;2023-05-21T10:01:22;12.07;;;7.70;;
7440;SDS011;29616;51.950;8.572;2023-05-21T10:03:53;9.85;;;7.35;;
7440;SDS011;29616;51.950;8.572;2023-05-21T10:06:25;10.18;;;7.88;;
7440;SDS011;29616;51.950;8.572;2023-05-21T10:09:00;13.60;;;7.78;;
7440;SDS011;29616;51.950;8.572;2023-05-21T10:11:35;12.07;;;7.70;;
7440;SDS011;29616;51.950;8.572;2023-05-21T10:14:08;10.30;;;7.85;;
7440;SDS011;29616;51.950;8.572;2023-05-21T10:16:46;12.50;;;8.27;;
7440;SDS011;29616;51.950;8.572;2023-05-21T10:19:16;11.48;;;8.77;;
7440;SDS011;29616;51.950;8.572;2023-05-21T10:21:49;11.32;;;9.02;;
7440;SDS011;29616;51.950;8.572;2023-05-21T10:24:25;11.43;;;8.73;;
7440;SDS011;29616;51.950;8.572;2023-05-21T10:26:56;12.30;;;9.02;;
7440;SDS011;29616;51.950;8.572;2023-05-21T10:29:26;11.10;;;9.38;;
7440;SDS011;29616;51.950;8.572;2023-05-21T10:32:00;11.68;;;9.45;;
7440;SDS011;29616;51.950;8.572;2023-05-21T10:34:32;10.80;;;8.70;;
7440;SDS011;29616;51.950;8.572;2023-05-21T10:37:03;11.73;;;8.30;;
7440;SDS011;29616;51.950;8.572;2023-05-21T10:39:37;11.93;;;8.38;;
7440;SDS011;29616;51.950;8.572;2023-05-21T10:42:11;13.35;;;9.40;;
7440;SDS011;29616;51.950;8.572;2023-05-21T10:44:57;12.55;;;9.27;;
7440;SDS011;29616;51.950;8.572;2023-05-21T10:50:43;11.80;;;7.90;;
7440;SDS011;29616;51.950;8.572;2023-05-21T10:53:31;14.65;;;9.45;;
7440;SDS011;29616;51.950;8.572;2023-05-21T10:56:19;11.40;;;8.60;;
7440;SDS011;29616;51.950;8.572;2023-05-21T10:59:04;12.38;;;8.85;;
7440;SDS011;29616;51.950;8.572;2023-05-21T11:01:48;12.82;;;9.30;;
7440;SDS011;29616;51.950;8.572;2023-05-21T11:04:20;13.05;;;9.02;;
7440;SDS011;29616;51.950;8.572;2023-05-21T11:06:52;14.60;;;11.38;;
7440;SDS011;29616;51.950;8.572;2023-05-21T11:09:23;13.85;;;9.68;;
7440;SDS011;29616;51.950;8.572;2023-05-21T11:11:57;13.65;;;10.45;;
7440;SDS011;29616;51.950;8.572;2023-05-21T11:14:31;13.82;;;12.32;;
7440;SDS011;29616;51.950;8.572;2023-05-21T11:17:11;12.15;;;9.55;;
7440;SDS011;29616;51.950;8.572;2023-05-21T11:19:45;13.43;;;9.50;;
7440;SDS011;29616;51.950;8.572;2023-05-21T11:22:21;15.93;;;11.32;;
7440;SDS011;29616;51.950;8.572;2023-05-21T11:24:53;13.43;;;10.10;;
7440;SDS011;29616;51.950;8.572;2023-05-21T11:27:30;13.98;;;10.75;;
7440;SDS011;29616;51.950;8.572;2023-05-21T11:30:05;11.65;;;8.55;;
7440;SDS011;29616;51.950;8.572;2023-05-21T11:32:35;12.20;;;9.32;;
7440;SDS011;29616;51.950;8.572;2023-05-21T11:35:06;15.20;;;10.73;;
7440;SDS011;29616;51.950;8.572;2023-05-21T11:37:38;12.73;;;10.38;;
7440;SDS011;29616;51.950;8.572;2023-05-21T11:40:15;12.93;;;9.75;;
7440;SDS011;29616;51.950;8.572;2023-05-21T11:42:54;17.38;;;12.48;;
7440;SDS011;29616;51.950;8.572;2023-05-21T11:45:27;12.52;;;9.50;;
7440;SDS011;29616;51.950;8.572;2023-05-21T11:48:00;11.57;;;10.05;;
7440;SDS011;29616;51.950;8.572;2023-05-21T11:50:31;13.50;;;10.63;;
7440;SDS011;29616;51.950;8.572;2023-05-21T11:53:02;13.20;;;10.85;;
7440;SDS011;29616;51.950;8.572;2023-05-21T11:55:33;16.48;;;9.13;;
7440;SDS011;29616;51.950;8.572;2023-05-21T11:58:09;14.70;;;9.73;;
7440;SDS011;29616;51.950;8.572;2023-05-21T12:00:42;13.40;;;9.90;;
7440;SDS011;29616;51.950;8.572;2023-05-21T12:03:12;11.43;;;8.90;;
7440;SDS011;29616;51.950;8.572;2023-05-21T12:05:45;12.38;;;8.75;;
7440;SDS011;29616;51.950;8.572;2023-05-21T12:08:20;14.25;;;12.52;;
7440;SDS011;29616;51.950;8.572;2023-05-21T12:10:54;13.45;;;12.18;;
7440;SDS011;29616;51.950;8.572;2023-05-21T12:13:27;16.85;;;8.60;;
7440;SDS011;29616;51.950;8.572;2023-05-21T12:15:58;13.70;;;11.32;;
7440;SDS011;29616;51.950;8.572;2023-05-21T12:18:29;12.05;;;9.30;;
7440;SDS011;29616;51.950;8.572;2023-05-21T12:20:59;11.70;;;9.55;;
7440;SDS011;29616;51.950;8.572;2023-05-21T12:23:29;15.35;;;9.45;;
7440;SDS011;29616;51.950;8.572;2023-05-21T12:25:59;11.25;;;9.10;;
7440;SDS011;29616;51.950;8.572;2023-05-21T12:28:30;14.68;;;13.13;;
7440;SDS011;29616;51.950;8.572;2023-05-21T12:31:01;11.30;;;10.10;;
7440;SDS011;29616;51.950;8.572;2023-05-21T12:33:32;12.02;;;8.18;;
7440;SDS011;29616;51.950;8.572;2023-05-21T12:38:33;13.02;;;10.82;;
7440;SDS011;29616;51.950;8.572;2023-05-21T12:41:04;12.90;;;8.75;;
7440;SDS011;29616;51.950;8.572;2023-05-21T12:43:39;11.68;;;8.82;;
7440;SDS011;29616;51.950;8.572;2023-05-21T12:46:10;13.13;;;9.25;;
7440;SDS011;29616;51.950;8.572;2023-05-21T12:48:46;13.82;;;9.20;;
7440;SDS011;29616;51.950;8.572;2023-05-21T12:51:16;12.38;;;9.73;;
7440;SDS011;29616;51.950;8.572;2023-05-21T12:53:46;12.80;;;9.45;;
7440;SDS011;29616;51.950;8.572;2023-05-21T12:56:16;11.90;;;9.68;;
7440;SDS011;29616;51.950;8.572;2023-05-21T12:58:48;12.65;;;10.18;;
7440;SDS011;29616;51.950;8.572;2023-05-21T13:01:20;11.75;;;10.32;;
7440;SDS011;29616;51.950;8.572;2023-05-21T13:03:48;12.00;;;9.13;;
7440;SDS011;29616;51.950;8.572;2023-05-21T13:06:18;15.48;;;10.65;;
7440;SDS011;29616;51.950;8.572;2023-05-21T13:08:47;12.93;;;10.32;;
7440;SDS011;29616;51.950;8.572;2023-05-21T13:11:18;12.77;;;11.45;;
7440;SDS011;29616;51.950;8.572;2023-05-21T13:13:49;12.77;;;10.05;;
7440;SDS011;29616;51.950;8.572;2023-05-21T13:16:19;11.80;;;9.95;;
7440;SDS011;29616;51.950;8.572;2023-05-21T13:18:49;15.05;;;11.20;;
7440;SDS011;29616;51.950;8.572;2023-05-21T13:21:17;13.02;;;9.85;;
7440;SDS011;29616;51.950;8.572;2023-05-21T13:23:47;16.38;;;14.75;;
7440;SDS011;29616;51.950;8.572;2023-05-21T13:26:17;12.75;;;11.07;;
7440;SDS011;29616;51.950;8.572;2023-05-21T13:28:49;12.55;;;10.13;;
7440;SDS011;29616;51.950;8.572;2023-05-21T13:31:18;13.57;;;9.13;;
7440;SDS011;29616;51.950;8.572;2023-05-21T13:33:47;14.52;;;11.35;;
7440;SDS011;29616;51.950;8.572;2023-05-21T13:36:16;12.35;;;9.63;;
7440;SDS011;29616;51.950;8.572;2023-05-21T13:38:46;14.25;;;10.32;;
7440;SDS011;29616;51.950;8.572;2023-05-21T13:41:14;15.15;;;10.27;;
7440;SDS011;29616;51.950;8.572;2023-05-21T13:43:45;16.42;;;11.55;;
7440;SDS011;29616;51.950;8.572;2023-05-21T13:46:16;14.93;;;10.95;;
7440;SDS011;29616;51.950;8.572;2023-05-21T13:48:45;14.45;;;10.75;;
7440;SDS011;29616;51.950;8.572;2023-05-21T13:51:14;15.45;;;11.52;;
7440;SDS011;29616;51.950;8.572;2023-05-21T13:54:04;15.05;;;11.43;;
7440;SDS011;29616;51.950;8.572;2023-05-21T13:56:32;15.18;;;11.82;;
7440;SDS011;29616;51.950;8.572;2023-05-21T13:59:04;13.05;;;10.98;;
7440;SDS011;29616;51.950;8.572;2023-05-21T14:01:35;14.45;;;10.25;;
7440;SDS011;29616;51.950;8.572;2023-05-21T14:04:04;13.65;;;10.80;;
7440;SDS011;29616;51.950;8.572;2023-05-21T14:06:35;13.63;;;11.48;;
7440;SDS011;29616;51.950;8.572;2023-05-21T14:09:04;16.67;;;12.57;;
7440;SDS011;29616;51.950;8.572;2023-05-21T14:11:35;14.73;;;11.90;;
7440;SDS011;29616;51.950;8.572;2023-05-21T14:14:05;16.77;;;12.15;;
7440;SDS011;29616;51.950;8.572;2023-05-21T14:16:36;13.93;;;12.23;;
7440;SDS011;29616;51.950;8.572;2023-05-21T14:19:06;14.50;;;11.52;;
7440;SDS011;29616;51.950;8.572;2023-05-21T14:21:37;15.00;;;11.23;;
7440;SDS011;29616;51.950;8.572;2023-05-21T14:24:07;14.93;;;12.55;;
7440;SDS011;29616;51.950;8.572;2023-05-21T14:26:39;15.50;;;13.90;;
7440;SDS011;29616;51.950;8.572;2023-05-21T14:29:08;14.85;;;12.73;;
7440;SDS011;29616;51.950;8.572;2023-05-21T14:31:39;16.30;;;12.35;;
7440;SDS011;29616;51.950;8.572;2023-05-21T14:34:09;17.65;;;15.95;;
7440;SDS011;29616;51.950;8.572;2023-05-21T14:36:40;14.02;;;9.82;;
7440;SDS011;29616;51.950;8.572;2023-05-21T14:39:10;16.60;;;13.05;;
7440;SDS011;29616;51.950;8.572;2023-05-21T14:41:42;14.10;;;11.55;;
7440;SDS011;29616;51.950;8.572;2023-05-21T14:44:11;14.77;;;11.93;;
7440;SDS011;29616;51.950;8.572;2023-05-21T14:46:41;15.55;;;12.80;;
7440;SDS011;29616;51.950;8.572;2023-05-21T14:49:11;15.80;;;13.20;;
7440;SDS011;29616;51.950;8.572;2023-05-21T14:51:40;20.33;;;12.68;;
7440;SDS011;29616;51.950;8.572;2023-05-21T14:54:09;16.15;;;12.70;;
7440;SDS011;29616;51.950;8.572;2023-05-21T14:56:37;16.92;;;11.88;;
7440;SDS011;29616;51.950;8.572;2023-05-21T14:59:07;14.90;;;11.60;;
7440;SDS011;29616;51.950;8.572;2023-05-21T15:01:38;20.00;;;13.38;;
7440;SDS011;29616;51.950;8.572;2023-05-21T15:04:09;14.18;;;10.90;;
7440;SDS011;29616;51.950;8.572;2023-05-21T15:06:39;17.05;;;12.57;;
7440;SDS011;29616;51.950;8.572;2023-05-21T15:09:11;16.55;;;13.05;;
7440;SDS011;29616;51.950;8.572;2023-05-21T15:11:39;14.75;;;11.98;;
7440;SDS011;29616;51.950;8.572;2023-05-21T15:14:12;13.85;;;10.88;;
7440;SDS011;29616;51.950;8.572;2023-05-21T15:16:43;13.50;;;11.55;;
7440;SDS011;29616;51.950;8.572;2023-05-21T15:19:13;14.38;;;12.23;;
7440;SDS011;29616;51.950;8.572;2023-05-21T15:21:42;16.88;;;15.13;;
7440;SDS011;29616;51.950;8.572;2023-05-21T15:24:11;13.60;;;11.35;;
7440;SDS011;29616;51.950;8.572;2023-05-21T15:26:41;16.20;;;11.23;;